createdAt,value
2019-05-19T00:03:34.385Z,15.50
2019-05-19T00:09:40.359Z,15.51
2019-05-19T00:15:46.361Z,15.52
2019-05-19T00:21:52.251Z,15.52
2019-05-19T00:27:58.184Z,15.50
2019-05-19T00:34:04.439Z,15.47
2019-05-19T00:40:10.656Z,15.45
2019-05-19T00:46:16.485Z,15.40
2019-05-19T00:52:22.416Z,15.19
2019-05-19T00:58:30.424Z,15.01
2019-05-19T01:04:36.338Z,14.97
2019-05-19T01:10:42.231Z,15.00
2019-05-19T01:16:48.776Z,14.88
2019-05-19T01:22:54.557Z,14.69
2019-05-19T01:29:00.769Z,14.44
2019-05-19T01:35:07.283Z,14.34
2019-05-19T01:41:13.182Z,14.25
2019-05-19T01:47:18.979Z,14.25
2019-05-19T01:53:24.919Z,14.25
2019-05-19T01:59:30.711Z,14.17
2019-05-19T02:05:36.586Z,14.16
2019-05-19T02:11:44.412Z,14.08
2019-05-19T02:17:50.207Z,13.94
2019-05-19T02:23:55.994Z,13.91
2019-05-19T02:30:02.257Z,13.91
2019-05-19T02:36:08.467Z,13.83
2019-05-19T02:42:15.641Z,13.73
2019-05-19T02:48:22.233Z,13.68
2019-05-19T02:54:29.313Z,13.58
2019-05-19T03:00:40.800Z,13.55
2019-05-19T03:06:46.650Z,13.49
2019-05-19T03:12:52.407Z,13.53
2019-05-19T03:18:58.172Z,13.54
2019-05-19T03:25:04.048Z,13.47
2019-05-19T03:31:40.761Z,13.29
2019-05-19T03:37:51.068Z,13.08
2019-05-19T03:43:56.848Z,13.00
2019-05-19T03:50:03.051Z,12.85
2019-05-19T03:56:08.809Z,12.80
2019-05-19T04:02:14.696Z,12.86
2019-05-19T04:08:20.473Z,12.98
2019-05-19T04:14:26.710Z,13.11
2019-05-19T04:20:33.170Z,13.09
2019-05-19T04:26:38.918Z,13.18
2019-05-19T04:32:45.209Z,13.34
2019-05-19T04:38:52.866Z,13.35
2019-05-19T04:44:58.812Z,13.45
2019-05-19T04:51:04.537Z,13.36
2019-05-19T04:57:10.263Z,13.31
2019-05-19T05:03:16.023Z,13.30
2019-05-19T05:09:21.809Z,13.29
2019-05-19T05:15:27.976Z,13.37
2019-05-19T05:21:36.725Z,13.51
2019-05-19T05:27:42.483Z,13.53
2019-05-19T05:33:48.408Z,13.59
2019-05-19T05:39:54.188Z,13.70
2019-05-19T05:46:00.089Z,13.88
2019-05-19T05:52:06.205Z,14.07
2019-05-19T05:58:12.203Z,14.32
2019-05-19T06:04:18.074Z,14.63
2019-05-19T06:10:23.824Z,14.98
2019-05-19T06:16:29.666Z,15.33
2019-05-19T06:22:35.850Z,15.62
2019-05-19T06:28:41.761Z,15.91
2019-05-19T06:34:47.514Z,16.13
2019-05-19T06:40:53.578Z,16.27
2019-05-19T06:46:59.514Z,16.41
2019-05-19T06:53:14.026Z,16.49
2019-05-19T06:59:15.034Z,16.56
2019-05-19T07:05:21.964Z,16.72
2019-05-19T07:11:27.877Z,16.81
2019-05-19T07:17:33.718Z,16.90
2019-05-19T07:23:39.510Z,16.99
2019-05-19T07:29:45.401Z,17.19
2019-05-19T07:35:51.463Z,17.39
2019-05-19T07:41:57.644Z,17.63
2019-05-19T07:48:03.401Z,17.91
2019-05-19T07:54:09.099Z,18.08
2019-05-19T08:00:15.010Z,18.28
2019-05-19T08:06:20.895Z,18.54
2019-05-19T08:12:28.114Z,18.83
2019-05-19T08:18:33.894Z,19.13
2019-05-19T08:24:39.785Z,19.35
2019-05-19T08:30:45.710Z,19.50
2019-05-19T08:36:51.847Z,19.76
2019-05-19T08:42:57.935Z,19.98
2019-05-19T08:49:03.704Z,20.15
2019-05-19T08:55:09.558Z,20.35
2019-05-19T09:01:15.308Z,20.55
2019-05-19T09:07:21.019Z,20.83
2019-05-19T09:13:27.523Z,20.99
2019-05-19T09:19:33.582Z,21.14
2019-05-19T09:25:39.560Z,21.37
2019-05-19T09:31:45.318Z,21.46
2019-05-19T09:37:51.617Z,21.49
2019-05-19T09:43:57.794Z,21.67
2019-05-19T09:50:03.805Z,21.66
2019-05-19T09:56:11.614Z,21.90
2019-05-19T10:02:17.718Z,22.07
2019-05-19T10:08:26.307Z,22.28
2019-05-19T10:14:32.649Z,22.55
2019-05-19T10:20:39.025Z,22.69
2019-05-19T10:26:45.151Z,22.88
2019-05-19T10:32:51.468Z,23.02
2019-05-19T10:38:57.509Z,23.11
2019-05-19T10:45:04.023Z,23.36
2019-05-19T10:51:09.871Z,23.49
2019-05-19T10:57:15.604Z,23.38
2019-05-19T11:03:21.462Z,23.54
2019-05-19T11:09:27.278Z,23.97
2019-05-19T11:15:33.036Z,24.14
2019-05-19T11:21:38.794Z,24.01
2019-05-19T11:27:44.884Z,24.31
2019-05-19T11:33:51.027Z,24.45
2019-05-19T11:39:57.093Z,24.53
2019-05-19T11:46:03.773Z,24.33
2019-05-19T11:52:09.974Z,24.47
2019-05-19T11:58:16.016Z,24.78
2019-05-19T12:04:22.219Z,24.98
2019-05-19T12:10:28.641Z,25.13
2019-05-19T12:16:34.620Z,25.37
2019-05-19T12:22:40.765Z,25.19
2019-05-19T12:28:46.794Z,25.06
2019-05-19T12:34:54.630Z,25.28
2019-05-19T12:41:01.101Z,25.62
2019-05-19T12:47:07.919Z,25.58
2019-05-19T12:53:14.510Z,25.52
2019-05-19T12:59:20.860Z,25.47
2019-05-19T13:05:26.984Z,25.47
2019-05-19T13:11:33.216Z,25.60
2019-05-19T13:17:39.415Z,25.63
2019-05-19T13:23:45.496Z,25.69
2019-05-19T13:29:51.803Z,25.65
2019-05-19T13:35:58.049Z,25.75
2019-05-19T13:42:04.312Z,26.15
2019-05-19T13:48:10.461Z,26.24
2019-05-19T13:54:16.494Z,26.39
2019-05-19T14:00:22.547Z,26.48
2019-05-19T14:06:29.240Z,26.72
2019-05-19T14:12:35.427Z,26.66
2019-05-19T14:18:41.764Z,25.67
2019-05-19T14:24:48.084Z,25.15
2019-05-19T14:30:54.339Z,24.49
2019-05-19T14:37:00.592Z,23.96
2019-05-19T14:43:07.668Z,23.65
2019-05-19T14:49:13.498Z,23.47
2019-05-19T14:55:19.610Z,23.23
2019-05-19T15:01:25.411Z,23.55
2019-05-19T15:07:31.460Z,23.92
2019-05-19T15:13:37.205Z,23.78
2019-05-19T15:19:43.107Z,23.48
2019-05-19T15:25:49.299Z,23.20
2019-05-19T15:31:55.411Z,22.68
2019-05-19T15:38:01.387Z,22.55
2019-05-19T15:44:07.092Z,22.64
2019-05-19T15:50:13.534Z,22.75
2019-05-19T15:56:19.326Z,22.87
2019-05-19T16:02:25.083Z,22.87
2019-05-19T16:08:31.339Z,23.17
2019-05-19T16:14:37.591Z,23.52
2019-05-19T16:20:45.023Z,23.75
2019-05-19T16:26:51.032Z,23.82
2019-05-19T16:32:57.568Z,24.09
2019-05-19T16:39:04.241Z,24.19
2019-05-19T16:45:10.785Z,24.76
2019-05-19T16:51:17.144Z,25.10
2019-05-19T16:57:23.157Z,25.56
2019-05-19T17:03:30.278Z,25.40
2019-05-19T17:09:36.349Z,25.14
2019-05-19T17:15:42.439Z,24.82
2019-05-19T17:21:48.667Z,24.77
2019-05-19T17:27:54.881Z,24.52
2019-05-19T17:34:01.284Z,24.11
2019-05-19T17:40:08.691Z,23.48
2019-05-19T17:46:14.861Z,22.86
2019-05-19T17:52:20.870Z,22.49
2019-05-19T17:58:27.776Z,21.99
2019-05-19T18:04:35.258Z,21.56
2019-05-19T18:10:41.136Z,21.23
2019-05-19T18:16:47.002Z,21.15
2019-05-19T18:22:52.801Z,21.06
2019-05-19T18:28:58.718Z,20.84
2019-05-19T18:35:04.797Z,20.59
2019-05-19T18:41:10.592Z,20.19
2019-05-19T18:47:16.661Z,19.94
2019-05-19T18:53:22.513Z,19.84
2019-05-19T18:59:28.327Z,19.74
2019-05-19T19:05:34.449Z,19.53
2019-05-19T19:11:40.366Z,19.34
2019-05-19T19:17:46.221Z,19.27
2019-05-19T19:23:52.152Z,18.87
2019-05-19T19:30:03.380Z,18.86
2019-05-19T19:36:05.681Z,18.71
2019-05-19T19:42:11.580Z,18.66
2019-05-19T19:48:17.472Z,18.56
2019-05-19T19:54:23.585Z,18.44
2019-05-19T20:00:46.093Z,18.42
2019-05-19T20:06:51.934Z,18.40
2019-05-19T20:12:57.745Z,18.14
2019-05-19T20:19:03.625Z,17.96
2019-05-19T20:25:09.574Z,17.92
2019-05-19T20:31:15.557Z,17.82
2019-05-19T20:37:21.630Z,17.80
2019-05-19T20:43:27.503Z,17.74
2019-05-19T20:49:33.333Z,17.55
2019-05-19T20:55:39.140Z,17.53
2019-05-19T21:01:45.165Z,17.55
2019-05-19T21:07:51.042Z,17.42
2019-05-19T21:13:56.864Z,17.33
2019-05-19T21:20:02.950Z,17.29
2019-05-19T21:26:09.025Z,17.27
2019-05-19T21:32:15.094Z,17.22
2019-05-19T21:38:21.342Z,16.88
2019-05-19T21:44:27.456Z,16.21
2019-05-19T21:50:34.293Z,16.10
2019-05-19T21:56:40.815Z,15.92
2019-05-19T22:02:46.793Z,15.80
2019-05-19T22:08:52.677Z,15.73
2019-05-19T22:15:00.024Z,15.67
2019-05-19T22:21:07.948Z,15.70
2019-05-19T22:27:13.768Z,15.60
2019-05-19T22:33:20.346Z,15.48
2019-05-19T22:39:26.514Z,15.04
2019-05-19T22:45:32.717Z,14.86
2019-05-19T22:51:40.408Z,14.85
2019-05-19T22:57:46.162Z,14.67
2019-05-19T23:03:52.002Z,14.60
2019-05-19T23:09:58.141Z,14.43
2019-05-19T23:16:03.963Z,14.32
2019-05-19T23:22:12.308Z,14.13
2019-05-19T23:28:18.369Z,14.04
2019-05-19T23:34:24.643Z,14.05
2019-05-19T23:40:30.706Z,13.97
2019-05-19T23:46:36.809Z,13.98
2019-05-19T23:52:42.678Z,13.94
2019-05-19T23:58:48.479Z,13.94
